createdAt,value
2023-06-15T00:01:02.910Z,1.95
2023-06-15T00:03:48.247Z,2.03
2023-06-15T00:06:34.828Z,1.73
2023-06-15T00:09:20.281Z,1.70
2023-06-15T00:12:10.277Z,1.88
2023-06-15T00:14:55.786Z,2.17
2023-06-15T00:17:43.259Z,2.25
2023-06-15T00:20:29.937Z,2.20
2023-06-15T00:23:18.477Z,2.40
2023-06-15T00:26:03.896Z,1.95
2023-06-15T00:28:49.278Z,1.90
2023-06-15T00:31:36.431Z,2.25
2023-06-15T00:34:21.690Z,2.22
2023-06-15T00:37:07.996Z,2.28
2023-06-15T00:39:53.644Z,2.20
2023-06-15T00:42:39.740Z,2.20
2023-06-15T00:45:25.267Z,2.13
2023-06-15T00:48:10.882Z,2.25
2023-06-15T00:50:56.535Z,2.30
2023-06-15T00:53:45.097Z,2.10
2023-06-15T00:56:30.648Z,2.33
2023-06-15T00:59:18.422Z,2.17
2023-06-15T01:02:04.720Z,2.20
2023-06-15T01:04:50.569Z,2.22
2023-06-15T01:07:36.417Z,2.25
2023-06-15T01:10:25.527Z,2.30
2023-06-15T01:13:21.104Z,2.10
2023-06-15T01:16:15.382Z,2.30
2023-06-15T01:19:02.459Z,2.47
2023-06-15T01:21:49.921Z,2.20
2023-06-15T01:24:38.816Z,2.28
2023-06-15T01:27:25.869Z,2.40
2023-06-15T01:30:14.082Z,2.58
2023-06-15T01:33:00.785Z,2.63
2023-06-15T01:35:46.110Z,2.40
2023-06-15T01:38:31.896Z,2.42
2023-06-15T01:41:21.437Z,2.22
2023-06-15T01:44:07.427Z,2.60
2023-06-15T01:46:52.931Z,2.80
2023-06-15T01:49:41.096Z,2.58
2023-06-15T01:52:26.596Z,2.60
2023-06-15T01:55:12.871Z,2.97
2023-06-15T01:57:58.498Z,2.97
2023-06-15T02:00:45.759Z,2.70
2023-06-15T02:03:32.542Z,2.97
2023-06-15T02:06:17.648Z,2.75
2023-06-15T02:09:03.118Z,3.22
2023-06-15T02:11:48.469Z,2.97
2023-06-15T02:14:33.785Z,3.17
2023-06-15T02:17:19.936Z,2.78
2023-06-15T02:20:10.264Z,2.70
2023-06-15T02:22:58.472Z,3.08
2023-06-15T02:25:43.926Z,3.03
2023-06-15T02:28:28.972Z,2.97
2023-06-15T02:31:15.064Z,3.10
2023-06-15T02:34:00.868Z,3.33
2023-06-15T02:36:47.357Z,3.10
2023-06-15T02:39:32.554Z,3.50
2023-06-15T02:42:17.806Z,3.33
2023-06-15T02:45:04.519Z,3.60
2023-06-15T02:47:50.201Z,3.47
2023-06-15T02:50:36.367Z,3.58
2023-06-15T02:53:29.048Z,3.58
2023-06-15T02:56:21.978Z,3.67
2023-06-15T02:59:08.915Z,3.83
2023-06-15T03:02:14.926Z,3.40
2023-06-15T03:05:00.714Z,3.33
2023-06-15T03:07:57.972Z,3.70
2023-06-15T03:10:53.885Z,3.50
2023-06-15T03:13:38.985Z,3.60
2023-06-15T03:16:26.195Z,4.13
2023-06-15T03:19:12.665Z,3.63
2023-06-15T03:21:58.768Z,4.00
2023-06-15T03:24:45.353Z,3.85
2023-06-15T03:27:33.743Z,4.05
2023-06-15T03:30:22.439Z,3.72
2023-06-15T03:33:11.148Z,4.18
2023-06-15T03:35:56.770Z,4.18
2023-06-15T03:38:42.788Z,3.85
2023-06-15T03:41:29.254Z,4.22
2023-06-15T03:44:15.569Z,4.63
2023-06-15T03:47:01.681Z,4.72
2023-06-15T03:49:47.551Z,4.47
2023-06-15T03:52:34.893Z,4.30
2023-06-15T03:55:21.470Z,4.10
2023-06-15T03:58:07.582Z,4.45
2023-06-15T04:00:53.984Z,3.90
2023-06-15T04:03:39.233Z,4.32
2023-06-15T04:06:24.582Z,4.10
2023-06-15T04:09:10.313Z,4.18
2023-06-15T04:11:55.829Z,3.92
2023-06-15T04:14:43.479Z,4.10
2023-06-15T04:17:28.957Z,3.85
2023-06-15T04:20:18.193Z,4.22
2023-06-15T04:23:04.653Z,4.57
2023-06-15T04:25:51.034Z,4.00
2023-06-15T04:28:36.393Z,4.40
2023-06-15T04:31:22.865Z,4.22
2023-06-15T04:34:13.017Z,4.70
2023-06-15T04:36:58.633Z,4.53
2023-06-15T04:39:43.890Z,4.90
2023-06-15T04:42:33.472Z,5.32
2023-06-15T04:45:20.974Z,5.07
2023-06-15T04:48:09.537Z,4.80
2023-06-15T04:50:57.454Z,4.95
2023-06-15T04:53:43.799Z,5.15
2023-06-15T04:56:29.733Z,5.70
2023-06-15T04:59:15.042Z,5.03
2023-06-15T05:02:03.511Z,5.38
2023-06-15T05:04:51.688Z,5.38
2023-06-15T05:07:37.031Z,6.05
2023-06-15T05:10:33.645Z,5.78
2023-06-15T05:13:28.195Z,5.40
2023-06-15T05:16:13.594Z,5.50
2023-06-15T05:18:58.804Z,5.22
2023-06-15T05:21:44.247Z,5.82
2023-06-15T05:24:29.670Z,5.47
2023-06-15T05:27:14.895Z,5.40
2023-06-15T05:30:08.367Z,4.72
2023-06-15T05:32:57.065Z,4.93
2023-06-15T05:35:42.455Z,5.00
2023-06-15T05:38:28.593Z,4.47
2023-06-15T05:41:13.983Z,4.43
2023-06-15T05:44:01.516Z,4.40
2023-06-15T05:46:46.835Z,4.60
2023-06-15T05:49:32.466Z,4.28
2023-06-15T05:52:18.971Z,4.03
2023-06-15T05:55:05.201Z,3.83
2023-06-15T05:57:50.654Z,4.30
2023-06-15T06:00:36.120Z,4.32
2023-06-15T06:03:22.515Z,4.32
2023-06-15T06:06:09.497Z,3.88
2023-06-15T06:08:55.021Z,4.07
2023-06-15T06:11:40.535Z,3.90
2023-06-15T06:14:26.904Z,3.97
2023-06-15T06:17:19.655Z,4.10
2023-06-15T06:20:17.135Z,4.32
2023-06-15T06:23:04.182Z,4.03
2023-06-15T06:25:49.577Z,4.20
2023-06-15T06:28:34.848Z,4.32
2023-06-15T06:31:20.031Z,4.18
2023-06-15T06:34:05.471Z,4.30
2023-06-15T06:36:50.740Z,4.18
2023-06-15T06:39:35.904Z,4.68
2023-06-15T06:42:21.539Z,4.22
2023-06-15T06:45:09.326Z,4.05
2023-06-15T06:47:54.483Z,4.05
2023-06-15T06:50:39.701Z,4.05
2023-06-15T06:53:26.210Z,4.30
2023-06-15T06:56:11.751Z,4.13
2023-06-15T06:58:57.100Z,4.25
2023-06-15T07:01:44.419Z,3.92
2023-06-15T07:04:29.762Z,4.03
2023-06-15T07:07:14.907Z,4.05
2023-06-15T07:10:00.197Z,3.60
2023-06-15T07:12:45.396Z,3.50
2023-06-15T07:15:32.733Z,3.80
2023-06-15T07:18:17.948Z,3.70
2023-06-15T07:21:04.102Z,3.70
2023-06-15T07:23:53.711Z,3.42
2023-06-15T07:26:39.562Z,3.60
2023-06-15T07:29:26.117Z,3.47
2023-06-15T07:32:11.921Z,3.03
2023-06-15T07:34:57.307Z,2.97
2023-06-15T07:37:42.483Z,3.00
2023-06-15T07:40:27.875Z,3.10
2023-06-15T07:43:13.041Z,3.10
2023-06-15T07:45:58.419Z,3.28
2023-06-15T07:48:43.697Z,3.03
2023-06-15T07:51:38.865Z,2.97
2023-06-15T07:54:27.337Z,3.00
2023-06-15T07:57:12.624Z,2.72
2023-06-15T07:59:59.919Z,3.28
2023-06-15T08:02:45.783Z,3.15
2023-06-15T08:05:31.036Z,2.70
2023-06-15T08:08:16.278Z,2.88
2023-06-15T08:11:01.646Z,2.40
2023-06-15T08:13:47.275Z,2.50
2023-06-15T08:16:34.734Z,2.92
2023-06-15T08:19:21.501Z,2.40
2023-06-15T08:22:07.232Z,2.00
2023-06-15T08:24:52.422Z,2.20
2023-06-15T08:27:39.322Z,2.53
2023-06-15T08:30:24.554Z,2.60
2023-06-15T08:33:09.814Z,2.00
2023-06-15T08:35:55.282Z,2.00
2023-06-15T08:38:40.878Z,2.20
2023-06-15T08:41:30.036Z,2.53
2023-06-15T08:44:17.236Z,2.20
2023-06-15T08:47:04.753Z,2.63
2023-06-15T08:49:51.809Z,2.47
2023-06-15T08:52:39.211Z,2.40
2023-06-15T08:55:25.519Z,2.60
2023-06-15T08:58:18.636Z,2.17
2023-06-15T09:01:07.099Z,2.60
2023-06-15T09:03:56.408Z,2.20
2023-06-15T09:06:41.740Z,2.45
2023-06-15T09:09:27.190Z,2.78
2023-06-15T09:12:20.874Z,2.58
2023-06-15T09:15:08.808Z,2.63
2023-06-15T09:18:01.350Z,2.70
2023-06-15T09:20:49.453Z,2.30
2023-06-15T09:23:34.800Z,2.47
2023-06-15T09:26:27.221Z,2.28
2023-06-15T09:29:13.166Z,2.60
2023-06-15T09:32:03.238Z,2.47
2023-06-15T09:34:59.534Z,2.08
2023-06-15T09:37:44.863Z,2.13
2023-06-15T09:40:34.535Z,2.35
2023-06-15T09:43:21.745Z,2.13
2023-06-15T09:46:14.134Z,2.30
2023-06-15T09:48:59.661Z,2.30
2023-06-15T09:51:47.278Z,2.05
2023-06-15T09:54:33.247Z,2.20
2023-06-15T09:57:20.585Z,2.33
2023-06-15T10:00:09.213Z,3.03
2023-06-15T10:03:02.593Z,2.00
2023-06-15T10:05:55.694Z,2.40
2023-06-15T10:08:44.221Z,2.42
2023-06-15T10:11:30.229Z,2.05
2023-06-15T10:14:32.712Z,2.33
2023-06-15T10:17:25.080Z,2.65
2023-06-15T10:20:18.966Z,2.28
2023-06-15T10:23:11.824Z,2.10
2023-06-15T10:25:59.291Z,2.42
2023-06-15T10:28:52.995Z,1.95
2023-06-15T10:31:52.339Z,2.40
2023-06-15T10:34:56.418Z,2.30
2023-06-15T10:37:59.136Z,2.10
2023-06-15T10:40:49.417Z,2.42
2023-06-15T10:43:34.956Z,2.15
2023-06-15T10:46:29.707Z,2.05
2023-06-15T10:49:14.942Z,1.95
2023-06-15T10:52:00.267Z,2.20
2023-06-15T10:54:46.217Z,2.13
2023-06-15T10:57:37.052Z,2.58
2023-06-15T11:00:28.613Z,2.42
2023-06-15T11:03:27.526Z,2.72
2023-06-15T11:06:20.355Z,2.50
2023-06-15T11:09:14.123Z,2.25
2023-06-15T11:11:59.393Z,2.50
2023-06-15T11:14:52.304Z,3.10
2023-06-15T11:18:16.567Z,2.67
2023-06-15T11:21:03.309Z,2.58
2023-06-15T11:23:57.285Z,2.25
2023-06-15T11:26:44.154Z,2.65
2023-06-15T11:29:34.157Z,2.60
2023-06-15T11:32:28.863Z,2.78
2023-06-15T11:35:14.497Z,2.53
2023-06-15T11:37:59.730Z,2.25
2023-06-15T11:40:47.994Z,2.92
2023-06-15T11:43:44.055Z,2.22
2023-06-15T11:46:29.429Z,2.47
2023-06-15T11:49:15.621Z,2.35
2023-06-15T11:52:01.060Z,2.60
2023-06-15T11:54:53.794Z,2.67
2023-06-15T11:57:43.633Z,2.53
2023-06-15T12:00:29.009Z,2.30
2023-06-15T12:03:14.350Z,2.38
2023-06-15T12:06:00.199Z,2.33
2023-06-15T12:08:57.302Z,2.35
2023-06-15T12:11:45.026Z,2.42
2023-06-15T12:14:30.256Z,2.25
2023-06-15T12:17:15.459Z,2.17
2023-06-15T12:20:11.027Z,2.00
2023-06-15T12:22:57.456Z,2.20
2023-06-15T12:25:48.477Z,2.30
2023-06-15T12:28:33.919Z,2.17
2023-06-15T12:31:19.488Z,2.10
2023-06-15T12:34:11.496Z,1.88
2023-06-15T12:36:57.021Z,2.10
2023-06-15T12:39:42.271Z,2.30
2023-06-15T12:42:27.641Z,2.22
2023-06-15T12:45:14.817Z,2.20
2023-06-15T12:48:01.909Z,1.70
2023-06-15T12:50:47.587Z,2.58
2023-06-15T12:53:33.232Z,1.77
2023-06-15T12:56:18.473Z,3.00
2023-06-15T12:59:04.546Z,2.15
2023-06-15T13:01:50.119Z,2.20
2023-06-15T13:04:36.570Z,2.00
2023-06-15T13:07:25.453Z,2.20
2023-06-15T13:10:11.277Z,2.10
2023-06-15T13:12:57.041Z,2.10
2023-06-15T13:15:42.305Z,1.60
2023-06-15T13:18:27.613Z,1.95
2023-06-15T13:21:13.654Z,1.75
2023-06-15T13:23:58.899Z,2.22
2023-06-15T13:26:44.315Z,2.30
2023-06-15T13:29:30.140Z,1.90
2023-06-15T13:32:16.577Z,2.20
2023-06-15T13:35:02.204Z,1.95
2023-06-15T13:37:47.788Z,1.73
2023-06-15T13:40:33.406Z,1.90
2023-06-15T13:43:19.116Z,1.80
2023-06-15T13:46:05.432Z,1.70
2023-06-15T13:48:50.728Z,2.10
2023-06-15T13:51:39.967Z,2.00
2023-06-15T13:54:25.397Z,2.80
2023-06-15T13:57:11.788Z,1.98
2023-06-15T13:59:57.238Z,2.17
2023-06-15T14:02:44.397Z,1.70
2023-06-15T14:05:29.497Z,2.30
2023-06-15T14:08:14.772Z,1.95
2023-06-15T14:11:00.091Z,1.90
2023-06-15T14:13:52.549Z,1.67
2023-06-15T14:16:38.029Z,1.83
2023-06-15T14:19:25.541Z,1.90
2023-06-15T14:22:10.696Z,1.70
2023-06-15T14:24:57.561Z,2.10
2023-06-15T14:27:48.593Z,1.70
2023-06-15T14:30:34.487Z,1.83
2023-06-15T14:33:20.972Z,1.88
2023-06-15T14:36:06.623Z,1.98
2023-06-15T14:38:51.906Z,1.83
2023-06-15T14:41:38.199Z,1.73
2023-06-15T14:44:23.904Z,2.08
2023-06-15T14:47:09.570Z,1.90
2023-06-15T14:49:55.449Z,1.50
2023-06-15T14:52:41.865Z,1.95
2023-06-15T14:55:27.352Z,2.13
2023-06-15T14:58:12.792Z,2.00
2023-06-15T15:00:58.121Z,2.08
2023-06-15T15:03:43.347Z,1.88
2023-06-15T15:06:29.856Z,2.28
2023-06-15T15:09:15.461Z,2.50
2023-06-15T15:12:00.836Z,1.80
2023-06-15T15:14:46.246Z,2.08
2023-06-15T15:17:33.131Z,1.95
2023-06-15T15:20:18.729Z,2.10
2023-06-15T15:23:04.186Z,1.88
2023-06-15T15:25:50.340Z,2.20
2023-06-15T15:28:35.981Z,2.00
2023-06-15T15:31:21.269Z,1.90
2023-06-15T15:34:06.634Z,2.20
2023-06-15T15:36:51.763Z,1.92
2023-06-15T15:39:37.072Z,2.03
2023-06-15T15:42:22.417Z,2.08
2023-06-15T15:45:08.334Z,1.75
2023-06-15T15:47:53.982Z,1.92
2023-06-15T15:50:39.633Z,2.28
2023-06-15T15:53:25.035Z,2.10
2023-06-15T15:56:10.931Z,1.95
2023-06-15T15:58:56.180Z,2.00
2023-06-15T16:01:42.750Z,2.33
2023-06-15T16:04:28.661Z,2.15
2023-06-15T16:07:14.138Z,2.10
2023-06-15T16:09:59.680Z,2.55
2023-06-15T16:12:45.608Z,1.90
2023-06-15T16:15:31.423Z,2.03
2023-06-15T16:18:16.817Z,1.73
2023-06-15T16:21:02.267Z,1.85
2023-06-15T16:23:47.582Z,1.95
2023-06-15T16:26:33.324Z,2.10
2023-06-15T16:29:18.775Z,1.75
2023-06-15T16:32:04.698Z,1.80
2023-06-15T16:34:50.103Z,1.67
2023-06-15T16:37:35.402Z,1.60
2023-06-15T16:40:20.961Z,1.70
2023-06-15T16:43:09.636Z,1.70
2023-06-15T16:45:55.142Z,1.70
2023-06-15T16:48:40.432Z,1.52
2023-06-15T16:51:25.813Z,1.75
2023-06-15T16:54:11.047Z,1.60
2023-06-15T16:56:56.376Z,1.52
2023-06-15T16:59:43.219Z,1.73
2023-06-15T17:02:28.497Z,1.65
2023-06-15T17:05:14.942Z,2.20
2023-06-15T17:08:00.669Z,1.30
2023-06-15T17:10:46.423Z,1.80
2023-06-15T17:13:31.726Z,1.60
2023-06-15T17:16:17.082Z,1.75
2023-06-15T17:19:03.654Z,1.80
2023-06-15T17:21:49.224Z,1.40
2023-06-15T17:24:34.933Z,1.83
2023-06-15T17:27:20.274Z,1.88
2023-06-15T17:30:06.664Z,1.48
2023-06-15T17:32:51.977Z,1.70
2023-06-15T17:35:37.166Z,1.73
2023-06-15T17:38:22.372Z,1.70
2023-06-15T17:41:11.141Z,1.45
2023-06-15T17:43:56.880Z,1.90
2023-06-15T17:46:42.397Z,1.73
2023-06-15T17:49:28.891Z,1.90
2023-06-15T17:52:14.368Z,1.85
2023-06-15T17:54:59.729Z,1.50
2023-06-15T17:57:45.092Z,1.92
2023-06-15T18:00:31.219Z,1.80
2023-06-15T18:03:17.005Z,1.75
2023-06-15T18:06:03.101Z,1.80
2023-06-15T18:08:48.712Z,1.85
2023-06-15T18:11:34.411Z,2.00
2023-06-15T18:14:19.673Z,1.67
2023-06-15T18:17:07.427Z,1.75
2023-06-15T18:19:52.988Z,1.90
2023-06-15T18:22:38.336Z,2.10
2023-06-15T18:25:23.897Z,2.00
2023-06-15T18:28:09.501Z,2.03
2023-06-15T18:30:54.858Z,2.10
2023-06-15T18:33:40.141Z,2.03
2023-06-15T18:36:25.531Z,1.80
2023-06-15T18:39:11.827Z,2.45
2023-06-15T18:41:57.126Z,2.22
2023-06-15T18:44:43.476Z,2.15
2023-06-15T18:47:29.060Z,2.10
2023-06-15T18:50:14.557Z,2.10
2023-06-15T18:53:01.889Z,2.15
2023-06-15T18:55:46.989Z,2.60
2023-06-15T18:58:32.541Z,1.90
2023-06-15T19:01:17.783Z,2.35
2023-06-15T19:04:03.216Z,2.38
2023-06-15T19:06:48.429Z,2.13
2023-06-15T19:09:33.775Z,2.20
2023-06-15T19:12:19.284Z,2.30
2023-06-15T19:15:05.038Z,2.60
2023-06-15T19:17:50.293Z,2.10
2023-06-15T19:20:35.491Z,2.13
2023-06-15T19:23:21.171Z,2.30
2023-06-15T19:26:15.017Z,2.42
2023-06-15T19:29:01.893Z,2.60
2023-06-15T19:31:47.344Z,2.50
2023-06-15T19:34:32.963Z,2.35
2023-06-15T19:37:18.338Z,2.40
2023-06-15T19:40:03.974Z,2.38
2023-06-15T19:42:49.619Z,2.45
2023-06-15T19:45:34.912Z,2.20
2023-06-15T19:48:20.611Z,2.95
2023-06-15T19:51:06.502Z,2.63
2023-06-15T19:53:51.863Z,2.10
2023-06-15T19:56:40.974Z,2.08
2023-06-15T19:59:27.136Z,2.20
2023-06-15T20:02:12.655Z,2.20
2023-06-15T20:04:57.967Z,2.40
2023-06-15T20:07:43.234Z,2.35
2023-06-15T20:10:28.523Z,2.00
2023-06-15T20:13:13.796Z,2.13
2023-06-15T20:16:09.704Z,2.50
2023-06-15T20:18:55.984Z,2.00
2023-06-15T20:21:41.933Z,2.50
2023-06-15T20:24:27.019Z,2.20
2023-06-15T20:27:12.143Z,2.40
2023-06-15T20:29:57.574Z,2.17
2023-06-15T20:32:42.826Z,2.10
2023-06-15T20:35:28.112Z,2.40
2023-06-15T20:38:13.621Z,2.88
2023-06-15T20:41:00.678Z,2.25
2023-06-15T20:43:46.930Z,2.40
2023-06-15T20:46:34.109Z,2.35
2023-06-15T20:49:19.402Z,2.08
2023-06-15T20:52:05.185Z,2.22
2023-06-15T20:54:50.848Z,2.00
2023-06-15T20:57:38.971Z,2.60
2023-06-15T21:00:24.884Z,2.38
2023-06-15T21:03:10.225Z,2.50
2023-06-15T21:05:56.489Z,2.10
2023-06-15T21:08:42.034Z,2.38
2023-06-15T21:11:27.705Z,2.13
2023-06-15T21:14:13.310Z,2.38
2023-06-15T21:16:58.474Z,2.50
2023-06-15T21:19:43.751Z,2.13
2023-06-15T21:22:29.694Z,2.40
2023-06-15T21:25:14.885Z,2.33
2023-06-15T21:28:00.364Z,2.47
2023-06-15T21:30:45.886Z,2.40
2023-06-15T21:33:31.363Z,2.63
2023-06-15T21:36:16.595Z,2.30
2023-06-15T21:39:02.057Z,2.53
2023-06-15T21:41:47.702Z,2.35
2023-06-15T21:44:33.112Z,2.65
2023-06-15T21:47:19.655Z,2.70
2023-06-15T21:50:05.807Z,2.70
2023-06-15T21:52:51.550Z,2.47
2023-06-15T21:55:37.278Z,2.70
2023-06-15T21:58:22.621Z,2.83
2023-06-15T22:01:09.214Z,2.58
2023-06-15T22:03:54.604Z,2.30
2023-06-15T22:06:40.653Z,2.67
2023-06-15T22:09:26.009Z,2.72
2023-06-15T22:12:12.146Z,2.85
2023-06-15T22:14:57.760Z,2.80
2023-06-15T22:17:44.510Z,2.60
2023-06-15T22:20:31.099Z,2.80
2023-06-15T22:23:16.591Z,2.72
2023-06-15T22:26:02.790Z,2.50
2023-06-15T22:28:48.508Z,2.60
2023-06-15T22:31:33.938Z,2.88
2023-06-15T22:34:20.637Z,2.67
2023-06-15T22:37:06.947Z,2.67
2023-06-15T22:39:52.487Z,2.83
2023-06-15T22:42:37.949Z,2.85
2023-06-15T22:45:23.203Z,2.75
2023-06-15T22:48:08.627Z,3.08
2023-06-15T22:50:57.414Z,2.92
2023-06-15T22:53:43.015Z,2.78
2023-06-15T22:56:28.309Z,2.65
2023-06-15T22:59:13.618Z,2.42
2023-06-15T23:01:58.895Z,2.90
2023-06-15T23:04:45.366Z,3.05
2023-06-15T23:07:30.833Z,2.63
2023-06-15T23:10:21.698Z,2.85
2023-06-15T23:13:09.238Z,2.83
2023-06-15T23:15:56.653Z,3.08
2023-06-15T23:18:46.028Z,2.75
2023-06-15T23:21:40.593Z,2.90
2023-06-15T23:24:26.769Z,2.88
2023-06-15T23:27:12.535Z,3.10
2023-06-15T23:29:58.063Z,2.90
2023-06-15T23:32:43.830Z,3.15
2023-06-15T23:35:29.002Z,3.25
2023-06-15T23:38:14.491Z,3.10
2023-06-15T23:40:59.956Z,3.25
2023-06-15T23:43:45.182Z,3.10
2023-06-15T23:46:30.710Z,2.80
2023-06-15T23:49:16.340Z,3.00
2023-06-15T23:52:02.142Z,3.30
2023-06-15T23:54:47.511Z,2.92
2023-06-15T23:57:32.721Z,3.20
